MSC Fabiola — A8VL5 — position and weather

sailwx.info

Track history (hours):
 
Tides and Currents Weather Stations Pressure Air Temp Water Temp Dewpoint Dewpoint Depression Visibility Wind Speed Wind Dir Waves Ship Positions

MSC Fabiola

Last reported at 2014-Sep-30 12:22 UTC. Time now 2014-Oct-01 14:26 UTC.
Position N 23°37' E 118°08'.

Length 366 m; draft 15.3 m.

Type: Ship. MMSI: 636092019.

Date/timePositionNaut miles runAvg speedWind from/ knotsBaromVisibWave heightAir tempDewpointWater temp
2014-Sep-30 12:22N 23°37' E 118°08'47018.9
2014-Sep-29 11:29N 30°10' E 122°55'1819.7
2014-Sep-29 10:33N 30°24' E 122°41'1818.5
2014-Sep-29 09:33N 30°32' E 122°22'1514.6
2014-Sep-29 08:31N 30°36' E 122°05'1 0.2
2014-Sep-29 06:10N 30°37' E 122°05'0 0.0
2014-Sep-28 18:31N 30°37' E 122°05'0 0.4
2014-Sep-28 17:29N 30°36' E 122°04'9 9.9
2014-Sep-28 16:33N 30°33' E 122°14'1111.1
2014-Sep-28 15:33N 30°32' E 122°27'1010.1
2014-Sep-28 14:33N 30°31' E 122°39'0 0.1
2014-Sep-28 13:33N 30°31' E 122°39'0 0.0
2014-Sep-28 05:21N 30°31' E 122°39'0 0.0
2014-Sep-28 03:15N 30°31' E 122°39'0 0.0
2014-Sep-28 02:33N 30°31' E 122°39'0 0.0
2014-Sep-28 01:33N 30°31' E 122°39'0 0.1
2014-Sep-27 23:21N 30°31' E 122°39'0 0.1
2014-Sep-27 22:27N 30°31' E 122°39'0 0.0
2014-Sep-27 14:03N 30°31' E 122°39'0 0.0
2014-Sep-27 05:27N 30°31' E 122°39'5 5.2
2014-Sep-27 04:33N 30°29' E 122°44'1212.0
2014-Sep-27 03:32N 30°21' E 122°54'1313.9
2014-Sep-27 02:33N 30°10' E 123°03'1616.2
2014-Sep-27 01:33N 29°54' E 122°56'1616.7
2014-Sep-27 00:33N 29°44' E 122°42'1514.6
2014-Sep-26 23:33N 29°40' E 122°25'1413.7
2014-Sep-26 22:33N 29°49' E 122°13'1110.7
2014-Sep-26 21:33N 29°54' E 122°03'1 0.5
2014-Sep-26 20:16N 29°54' E 122°02'0 0.0
2014-Sep-26 19:31N 29°54' E 122°02'0 0.0
2014-Sep-26 18:30N 29°54' E 122°02'0 0.0
2014-Sep-26 17:33N 29°54' E 122°02'0 0.0
2014-Sep-26 16:32N 29°54' E 122°02'0 0.0
2014-Sep-26 14:33N 29°54' E 122°02'0 0.0
2014-Sep-26 13:22N 29°54' E 122°02'0 0.0
2014-Sep-26 12:19N 29°54' E 122°02'0 0.0
2014-Sep-26 11:17N 29°54' E 122°02'0 0.0
2014-Sep-26 10:28N 29°54' E 122°02'0 0.0
2014-Sep-26 09:04N 29°54' E 122°02'0 0.0
2014-Sep-26 08:31N 29°54' E 122°02'0 0.0
2014-Sep-26 07:06N 29°54' E 122°02'0 0.0
2014-Sep-26 06:23N 29°54' E 122°02'0 0.0
2014-Sep-26 04:28N 29°54' E 122°02'0 0.0
2014-Sep-26 03:28N 29°54' E 122°02'5 5.2
2014-Sep-26 02:33N 29°56' E 122°07'1212.2
2014-Sep-26 01:33N 29°47' E 122°17'8 7.6
2014-Sep-26 00:33N 29°43' E 122°24'9 8.4
2014-Sep-25 23:32N 29°39' E 122°33'7 6.8
2014-Sep-25 22:28N 29°43' E 122°40'1011.1
2014-Sep-25 21:33N 29°50' E 122°49'38211.9
2014-Sep-24 13:31N 35°57' E 120°42'1515.2
2014-Sep-24 12:33N 36°00' E 120°25'10 0.5
2014-Sep-23 16:25N 36°00' E 120°12'5 6.0
2014-Sep-23 15:33N 36°02' E 120°18'10 9.7
2014-Sep-23 14:33N 35°60' E 120°30'  
Track history (hours):
 
Tides and Currents Weather Stations Pressure Air Temp Water Temp Dewpoint Dewpoint Depression Visibility Wind Speed Wind Dir Waves Ship Positions

MSC Fabiola

Last reported at 2014-Sep-30 12:22 UTC. Time now 2014-Oct-01 14:26 UTC.
Position N 23°37' E 118°08'.

Length 366 m; draft 15.3 m.

Type: Ship. MMSI: 636092019.

Date/timePositionNaut miles runAvg speedWind from/ knotsBaromVisibWave heightAir tempDewpointWater temp
2014-Sep-30 12:22N 23°37' E 118°08'47018.9
2014-Sep-29 11:29N 30°10' E 122°55'1819.7
2014-Sep-29 10:33N 30°24' E 122°41'1818.5
2014-Sep-29 09:33N 30°32' E 122°22'1514.6
2014-Sep-29 08:31N 30°36' E 122°05'1 0.2
2014-Sep-29 06:10N 30°37' E 122°05'0 0.0
2014-Sep-28 18:31N 30°37' E 122°05'0 0.4
2014-Sep-28 17:29N 30°36' E 122°04'9 9.9
2014-Sep-28 16:33N 30°33' E 122°14'1111.1
2014-Sep-28 15:33N 30°32' E 122°27'1010.1
2014-Sep-28 14:33N 30°31' E 122°39'0 0.1
2014-Sep-28 13:33N 30°31' E 122°39'0 0.0
2014-Sep-28 05:21N 30°31' E 122°39'0 0.0
2014-Sep-28 03:15N 30°31' E 122°39'0 0.0
2014-Sep-28 02:33N 30°31' E 122°39'0 0.0
2014-Sep-28 01:33N 30°31' E 122°39'0 0.1
2014-Sep-27 23:21N 30°31' E 122°39'0 0.1
2014-Sep-27 22:27N 30°31' E 122°39'0 0.0
2014-Sep-27 14:03N 30°31' E 122°39'0 0.0
2014-Sep-27 05:27N 30°31' E 122°39'5 5.2
2014-Sep-27 04:33N 30°29' E 122°44'1212.0
2014-Sep-27 03:32N 30°21' E 122°54'1313.9
2014-Sep-27 02:33N 30°10' E 123°03'1616.2
2014-Sep-27 01:33N 29°54' E 122°56'1616.7
2014-Sep-27 00:33N 29°44' E 122°42'1514.6
2014-Sep-26 23:33N 29°40' E 122°25'1413.7
2014-Sep-26 22:33N 29°49' E 122°13'1110.7
2014-Sep-26 21:33N 29°54' E 122°03'1 0.5
2014-Sep-26 20:16N 29°54' E 122°02'0 0.0
2014-Sep-26 19:31N 29°54' E 122°02'0 0.0
2014-Sep-26 18:30N 29°54' E 122°02'0 0.0
2014-Sep-26 17:33N 29°54' E 122°02'0 0.0
2014-Sep-26 16:32N 29°54' E 122°02'0 0.0
2014-Sep-26 14:33N 29°54' E 122°02'0 0.0
2014-Sep-26 13:22N 29°54' E 122°02'0 0.0
2014-Sep-26 12:19N 29°54' E 122°02'0 0.0
2014-Sep-26 11:17N 29°54' E 122°02'0 0.0
2014-Sep-26 10:28N 29°54' E 122°02'0 0.0
2014-Sep-26 09:04N 29°54' E 122°02'0 0.0
2014-Sep-26 08:31N 29°54' E 122°02'0 0.0
2014-Sep-26 07:06N 29°54' E 122°02'0 0.0
2014-Sep-26 06:23N 29°54' E 122°02'0 0.0
2014-Sep-26 04:28N 29°54' E 122°02'0 0.0
2014-Sep-26 03:28N 29°54' E 122°02'5 5.2
2014-Sep-26 02:33N 29°56' E 122°07'1212.2
2014-Sep-26 01:33N 29°47' E 122°17'8 7.6
2014-Sep-26 00:33N 29°43' E 122°24'9 8.4
2014-Sep-25 23:32N 29°39' E 122°33'7 6.8
2014-Sep-25 22:28N 29°43' E 122°40'1011.1
2014-Sep-25 21:33N 29°50' E 122°49'38211.9
2014-Sep-24 13:31N 35°57' E 120°42'1515.2
2014-Sep-24 12:33N 36°00' E 120°25'10 0.5
2014-Sep-23 16:25N 36°00' E 120°12'5 6.0
2014-Sep-23 15:33N 36°02' E 120°18'10 9.7
2014-Sep-23 14:33N 35°60' E 120°30'  

Dump ship's entire track history